Time;durP1;ratioP1;P1;durP2;ratioP2;P2;SDS_P1;SDS_P2;PMS_P1;PMS_P2;Temp;Humidity;BMP_temperature;BMP_pressure;BME280_temperature;BME280_humidity;BME280_pressure;Samples;Min_cycle;Max_cycle;Signal;HPM_P1;HPM_P2
2024/02/11 00:01:51;;;;;;;7.73;6.10;;;;;;;11.22;66.20;92172.53;4896669;29;20245;-85
2024/02/11 00:08:08;;;;;;;6.53;5.60;;;;;;;11.13;65.56;92148.38;4898054;29;20215;-84
2024/02/11 00:10:35;;;;;;;6.37;4.87;;;;;;;11.11;64.99;92144.53;4913554;29;20198;-85
2024/02/11 00:13:02;;;;;;;5.30;4.77;;;;;;;11.04;64.86;92135.28;4917436;29;20292;-85
2024/02/11 00:15:43;;;;;;;5.20;4.70;;;;;;;11.04;65.02;92150.72;4915839;29;20222;-86
2024/02/11 00:18:37;;;;;;;5.80;5.00;;;;;;;11.10;65.07;92156.63;4914370;29;20230;-85
2024/02/11 00:21:47;;;;;;;5.13;4.63;;;;;;;11.12;65.12;92161.50;4917420;29;20225;-84
2024/02/11 00:27:33;;;;;;;5.60;4.80;;;;;;;11.03;65.22;92154.31;4886627;29;20229;-85
2024/02/11 00:30:22;;;;;;;5.50;5.00;;;;;;;10.99;64.92;92144.81;4898438;29;20217;-85
2024/02/11 00:32:56;;;;;;;5.73;4.60;;;;;;;11.01;65.00;92143.50;4915485;29;20202;-85
2024/02/11 00:35:59;;;;;;;4.77;4.33;;;;;;;11.02;64.90;92149.44;4912659;29;20780;-84
2024/02/11 00:39:05;;;;;;;8.00;4.53;;;;;;;11.07;65.07;92141.69;4915148;29;20206;-85
2024/02/11 00:41:35;;;;;;;4.90;4.40;;;;;;;11.12;64.61;92135.78;4915747;29;20281;-86
2024/02/11 00:46:57;;;;;;;6.13;3.93;;;;;;;11.22;64.45;92130.56;4910715;29;20232;-85
2024/02/11 00:49:29;;;;;;;4.53;3.97;;;;;;;11.25;64.42;92133.38;4900282;29;20210;-85
2024/02/11 00:58:33;;;;;;;4.77;4.10;;;;;;;11.19;63.57;92106.09;4902740;29;20207;-86
2024/02/11 01:01:07;;;;;;;3.97;3.57;;;;;;;11.22;63.95;92118.47;4900097;29;20217;-86
2024/02/11 01:03:56;;;;;;;4.53;4.10;;;;;;;11.21;64.03;92131.59;4903659;29;20216;-85
2024/02/11 01:09:46;;;;;;;7.43;3.47;;;;;;;11.11;65.64;92227.66;4908029;29;20300;-84
2024/02/11 01:19:03;;;;;;;4.13;3.70;;;;;;;11.22;66.08;92287.63;4917063;29;20202;-85
2024/02/11 01:21:33;;;;;;;5.30;3.90;;;;;;;11.23;66.53;92302.03;4840124;29;20224;-86
2024/02/11 01:28:07;;;;;;;;;;;;;;;;;;;;;
2024/02/11 01:33:47;;;;;;;4.67;4.00;;;;;;;11.36;67.78;92376.16;4880888;29;20227;-86
2024/02/11 01:36:17;;;;;;;3.93;3.60;;;;;;;11.38;67.93;92394.72;4898348;29;20219;-85
2024/02/11 01:38:57;;;;;;;4.90;4.00;;;;;;;11.33;68.63;92426.41;4902201;29;20222;-85
2024/02/11 01:41:28;;;;;;;4.90;4.40;;;;;;;11.33;69.20;92441.09;4906475;29;20222;-86
2024/02/11 01:44:08;;;;;;;4.87;4.20;;;;;;;11.36;68.95;92443.91;4902839;29;20203;-85
2024/02/11 01:46:50;;;;;;;4.60;4.20;;;;;;;11.48;68.74;92446.22;4898496;29;20226;-85
2024/02/11 01:57:31;;;;;;;4.97;4.47;;;;;;;11.54;69.12;92486.41;4906065;29;20222;-85
2024/02/11 02:00:07;;;;;;;6.30;4.90;;;;;;;11.51;69.81;92504.19;4918242;29;20226;-84
2024/02/11 02:03:00;;;;;;;4.90;4.40;;;;;;;11.48;70.22;92518.34;4916084;29;20221;-85
2024/02/11 02:05:35;;;;;;;5.57;4.73;;;;;;;11.48;70.36;92530.47;4916947;29;20893;-85
2024/02/11 02:08:17;;;;;;;5.53;4.77;;;;;;;11.51;70.50;92527.38;4916026;29;20300;-85
2024/02/11 02:10:54;;;;;;;5.20;4.70;;;;;;;11.48;70.59;92535.59;4914080;29;20199;-85
2024/02/11 02:13:40;;;;;;;8.00;5.10;;;;;;;11.50;70.93;92544.63;4908576;29;20206;-85
2024/02/11 02:16:19;;;;;;;5.57;4.83;;;;;;;11.52;71.23;92552.88;4916467;29;20233;-84
2024/02/11 02:18:53;;;;;;;5.20;4.70;;;;;;;11.54;70.97;92555.22;4916578;29;20209;-85
2024/02/11 02:21:38;;;;;;;5.90;4.67;;;;;;;11.55;71.59;92572.19;4916562;29;20202;-84
2024/02/11 02:24:16;;;;;;;6.13;5.30;;;;;;;11.56;71.60;92582.22;4916135;29;20222;-85
2024/02/11 02:26:50;;;;;;;5.53;4.97;;;;;;;11.54;71.96;92591.28;4913970;29;20313;-85
2024/02/11 02:29:38;;;;;;;7.03;5.30;;;;;;;11.54;72.28;92610.09;4904506;29;20213;-85
2024/02/11 02:32:18;;;;;;;7.83;6.57;;;;;;;11.59;72.26;92617.03;4896877;29;20229;-85
2024/02/11 02:34:53;;;;;;;6.17;5.57;;;;;;;11.56;73.24;92635.56;4884212;29;20211;-84
2024/02/11 02:37:22;;;;;;;5.47;5.00;;;;;;;11.56;73.44;92649.22;4903696;29;20229;-85
2024/02/11 02:40:15;;;;;;;6.23;5.63;;;;;;;11.55;73.79;92664.94;4909186;29;20234;-84
2024/02/11 02:42:46;;;;;;;6.30;5.50;;;;;;;11.57;73.86;92663.66;4914789;29;20238;-84
2024/02/11 02:45:15;;;;;;;6.33;5.57;;;;;;;11.62;74.26;92679.13;4908778;29;20403;-84
2024/02/11 02:50:40;;;;;;;6.60;6.00;;;;;;;11.53;76.55;92752.03;4907883;29;20225;-85
2024/02/11 02:56:13;;;;;;;7.20;6.13;;;;;;;11.45;78.78;92822.06;4894840;29;20262;-85
2024/02/11 02:58:42;;;;;;;7.10;6.50;;;;;;;11.47;78.92;92831.09;4910630;29;20203;-84
2024/02/11 03:01:19;;;;;;;7.57;6.77;;;;;;;11.39;80.22;92850.34;4923521;29;20280;-84
2024/02/11 03:04:14;;;;;;;6.87;6.27;;;;;;;11.41;80.74;92865.56;4903730;29;20243;-84
2024/02/11 03:06:40;;;;;;;7.27;6.57;;;;;;;11.42;81.42;92872.25;4908491;29;20231;-84
2024/02/11 03:09:08;;;;;;;7.13;6.50;;;;;;;11.45;81.80;92878.72;4902052;29;20211;-84
2024/02/11 03:11:37;;;;;;;7.70;6.83;;;;;;;11.50;81.52;92886.50;4901899;29;20200;-84
2024/02/11 03:14:06;;;;;;;7.90;7.10;;;;;;;11.48;82.60;92907.34;4902137;29;20278;-83
2024/02/11 03:16:33;;;;;;;7.97;7.17;;;;;;;11.45;83.40;92923.28;4898765;29;20238;-84
2024/02/11 03:18:59;;;;;;;7.90;7.10;;;;;;;11.43;84.50;92933.84;4900632;29;20247;-84
2024/02/11 03:21:26;;;;;;;8.43;7.63;;;;;;;11.42;85.05;92945.16;4900712;29;20211;-84
2024/02/11 03:23:52;;;;;;;8.10;7.37;;;;;;;11.40;86.14;92961.88;4900388;29;20227;-85
2024/02/11 03:26:19;;;;;;;8.50;7.50;;;;;;;11.40;85.97;92977.34;4901066;29;20227;-84
2024/02/11 03:28:46;;;;;;;8.43;7.57;;;;;;;11.37;86.80;92985.56;4900241;29;20695;-84
2024/02/11 03:31:13;;;;;;;8.20;7.30;;;;;;;11.30;88.08;93011.53;4894503;29;20207;-84
2024/02/11 03:33:39;;;;;;;8.53;7.73;;;;;;;11.26;88.85;93017.41;4894277;29;20199;-85
2024/02/11 03:36:07;;;;;;;8.77;7.93;;;;;;;11.26;88.84;93018.19;4898398;29;20223;-84
2024/02/11 03:38:33;;;;;;;7.83;7.10;;;;;;;11.31;88.93;93017.47;4898932;29;20210;-84
2024/02/11 03:40:59;;;;;;;8.50;7.80;;;;;;;11.32;88.93;93031.91;4898473;29;20234;-84
2024/02/11 03:43:26;;;;;;;7.93;7.23;;;;;;;11.30;89.30;93037.28;4897872;29;20226;-84
2024/02/11 03:45:54;;;;;;;7.87;7.17;;;;;;;11.28;89.31;93038.53;4897949;29;20238;-85
2024/02/11 03:48:20;;;;;;;8.37;7.57;;;;;;;11.29;89.09;93032.38;4895838;29;20215;-85
2024/02/11 03:50:47;;;;;;;8.40;7.60;;;;;;;11.28;89.31;93038.53;4890150;29;20203;-83
2024/02/11 03:53:14;;;;;;;8.33;7.50;;;;;;;11.20;90.11;93047.47;4897267;29;20195;-84
2024/02/11 03:55:43;;;;;;;7.60;6.93;;;;;;;11.21;90.45;93054.19;4897795;29;20231;-84
2024/02/11 03:58:10;;;;;;;7.87;7.13;;;;;;;11.19;90.74;93063.94;4897572;29;20240;-85
2024/02/11 04:00:37;;;;;;;8.30;7.50;;;;;;;11.24;90.54;93058.06;4897891;29;20286;-85
2024/02/11 04:03:09;;;;;;;8.10;7.30;;;;;;;11.23;91.01;93061.66;4908671;29;20250;-84
2024/02/11 04:05:38;;;;;;;7.90;7.20;;;;;;;11.21;91.40;93069.63;4916762;29;20781;-84
2024/02/11 04:08:08;;;;;;;8.40;7.60;;;;;;;11.19;91.37;93060.59;4917123;29;20592;-84
2024/02/11 04:10:36;;;;;;;8.37;7.57;;;;;;;11.19;92.00;93081.97;4916314;29;20205;-85
2024/02/11 04:13:03;;;;;;;7.90;7.20;;;;;;;11.05;93.71;93104.75;4914534;29;20261;-84
2024/02/11 04:15:30;;;;;;;8.00;7.20;;;;;;;11.06;94.20;93118.38;4916437;29;20722;-84
2024/02/11 04:18:07;;;;;;;7.47;6.77;;;;;;;11.00;95.27;93127.84;4909079;29;20209;-84
2024/02/11 04:20:35;;;;;;;7.70;7.00;;;;;;;11.00;96.00;93138.13;4910541;29;20679;-84
2024/02/11 04:23:03;;;;;;;8.30;7.60;;;;;;;11.06;95.72;93141.56;4905441;29;20589;-84
2024/02/11 04:25:33;;;;;;;8.03;7.23;;;;;;;11.07;96.12;93143.13;4904348;29;20621;-84
2024/02/11 04:27:59;;;;;;;7.70;6.57;;;;;;;11.05;96.51;93147.72;4895919;29;20227;-84
2024/02/11 04:30:27;;;;;;;7.90;7.10;;;;;;;11.00;97.77;93168.25;4902140;29;20217;-84
2024/02/11 04:32:54;;;;;;;7.80;7.10;;;;;;;10.87;99.87;93189.97;4913048;29;20237;-83
2024/02/11 04:35:24;;;;;;;7.47;6.77;;;;;;;10.77;100.00;93214.81;4913038;29;20211;-85
2024/02/11 04:37:53;;;;;;;7.93;7.13;;;;;;;10.81;100.00;93221.00;4906705;29;20237;-85
2024/02/11 04:40:21;;;;;;;7.03;6.43;;;;;;;10.79;100.00;93238.47;4912785;29;20237;-84
2024/02/11 04:42:53;;;;;;;6.23;5.63;;;;;;;10.66;100.00;93250.66;4910383;29;20241;-84
2024/02/11 04:45:22;;;;;;;4.07;3.30;;;;;;;10.40;99.29;93189.53;4895840;29;20233;-84
2024/02/11 04:47:52;;;;;;;1.70;1.60;;;;;;;10.15;96.25;93153.13;4895229;29;20307;-85
2024/02/11 04:50:21;;;;;;;1.20;1.10;;;;;;;9.76;93.50;93117.03;4895368;29;20206;-83
2024/02/11 04:52:54;;;;;;;0.70;0.70;;;;;;;9.56;93.59;93126.97;4900758;29;20315;-83
2024/02/11 04:55:24;;;;;;;0.63;0.63;;;;;;;9.47;93.81;93130.88;4908463;29;20240;-86
2024/02/11 04:57:51;;;;;;;0.70;0.60;;;;;;;9.47;94.18;93147.06;4914106;29;20238;-84
2024/02/11 05:00:27;;;;;;;0.60;0.60;;;;;;;9.60;93.47;93149.38;4912962;29;20206;-84
2024/02/11 05:02:55;;;;;;;0.53;0.53;;;;;;;9.61;92.29;93138.09;4907735;29;20237;-84
2024/02/11 05:05:25;;;;;;;1.03;0.40;;;;;;;9.29;90.80;93099.25;4899277;29;20312;-83
2024/02/11 05:07:54;;;;;;;0.67;0.50;;;;;;;9.26;91.38;93119.47;4915687;29;20227;-84
2024/02/11 05:10:24;;;;;;;0.40;0.40;;;;;;;9.12;91.65;93139.50;4914767;29;20210;-84
2024/02/11 05:12:51;;;;;;;0.40;0.40;;;;;;;9.20;91.15;93125.53;4922604;29;20190;-83
2024/02/11 05:15:20;;;;;;;0.40;0.40;;;;;;;9.14;90.64;93122.09;4923423;29;20210;-84
2024/02/11 05:17:50;;;;;;;0.40;0.40;;;;;;;9.19;91.13;93129.09;4907712;29;20215;-84
2024/02/11 05:20:23;;;;;;;0.40;0.40;;;;;;;9.10;90.83;93138.16;4905765;29;20196;-84
2024/02/11 05:22:51;;;;;;;0.40;0.40;;;;;;;9.03;90.06;93127.25;4928519;29;20261;-84
2024/02/11 05:25:23;;;;;;;0.33;0.33;;;;;;;8.96;90.45;93137.63;4930566;29;20202;-84
2024/02/11 05:27:56;;;;;;;0.50;0.50;;;;;;;8.74;91.06;93150.28;4925691;29;20243;-84
2024/02/11 05:30:25;;;;;;;0.33;0.33;;;;;;;8.55;92.03;93164.22;4916200;29;20206;-84
2024/02/11 05:32:53;;;;;;;0.30;0.30;;;;;;;8.44;92.25;93173.47;4912615;29;20689;-84
2024/02/11 05:35:23;;;;;;;0.40;0.40;;;;;;;8.55;92.55;93179.59;4921412;29;20210;-84
2024/02/11 05:37:52;;;;;;;0.40;0.40;;;;;;;8.47;91.02;93162.75;4921796;29;20547;-85
2024/02/11 05:40:20;;;;;;;0.40;0.40;;;;;;;8.40;90.98;93158.75;4917329;29;20733;-85
2024/02/11 05:42:47;;;;;;;0.30;0.30;;;;;;;8.42;91.33;93165.22;4903686;29;20322;-85
2024/02/11 05:45:17;;;;;;;0.30;0.30;;;;;;;8.48;91.30;93179.72;4901840;29;20279;-84
2024/02/11 05:47:44;;;;;;;0.40;0.40;;;;;;;8.52;91.23;93180.81;4907895;29;20231;-84
2024/02/11 05:50:12;;;;;;;0.50;0.50;;;;;;;8.56;91.99;93206.81;4923752;29;20206;-84
2024/02/11 05:52:43;;;;;;;0.30;0.30;;;;;;;8.63;91.52;93198.03;4914878;29;20877;-85
2024/02/11 05:55:12;;;;;;;0.40;0.40;;;;;;;8.63;90.45;93185.19;4903349;29;20278;-85
2024/02/11 05:57:39;;;;;;;0.40;0.40;;;;;;;8.61;91.31;93196.69;4908682;29;20598;-85
2024/02/11 06:00:12;;;;;;;1.23;0.50;;;;;;;8.46;91.12;93216.84;4920253;29;20218;-85
2024/02/11 06:02:42;;;;;;;0.60;0.60;;;;;;;8.13;90.11;93196.81;4919329;29;20217;-84
2024/02/11 06:05:12;;;;;;;0.70;0.70;;;;;;;8.02;90.97;93205.25;4919885;29;20225;-85
2024/02/11 06:07:39;;;;;;;0.60;0.60;;;;;;;8.04;90.94;93213.50;4916553;29;20202;-85
2024/02/11 06:10:11;;;;;;;0.70;0.70;;;;;;;8.03;90.00;93204.25;4912905;29;20214;-85
2024/02/11 06:12:38;;;;;;;0.70;0.70;;;;;;;7.98;90.33;93200.56;4908916;29;20735;-84
2024/02/11 06:15:09;;;;;;;0.70;0.70;;;;;;;7.91;90.68;93224.69;4917585;29;20297;-85
2024/02/11 06:17:36;;;;;;;0.70;0.70;;;;;;;7.88;91.36;93232.84;4915906;29;20776;-85
2024/02/11 06:20:13;;;;;;;0.70;0.70;;;;;;;7.71;90.61;93230.06;4918007;29;20210;-85
2024/02/11 06:22:40;;;;;;;0.70;0.70;;;;;;;7.71;91.10;93242.88;4915039;29;20203;-85
2024/02/11 06:25:08;;;;;;;0.80;0.80;;;;;;;7.76;91.67;93267.84;4918824;29;20202;-85
2024/02/11 06:27:36;;;;;;;0.70;0.70;;;;;;;7.78;91.14;93260.75;4901353;29;20230;-85
2024/02/11 06:30:08;;;;;;;0.70;0.70;;;;;;;7.76;90.42;93248.16;4910134;29;20206;-85
2024/02/11 06:32:36;;;;;;;0.80;0.80;;;;;;;7.83;90.27;93253.19;4906179;29;20232;-84
2024/02/11 06:35:06;;;;;;;0.80;0.80;;;;;;;7.54;89.43;93245.25;4918148;29;20206;-84
2024/02/11 06:37:34;;;;;;;0.70;0.70;;;;;;;7.46;89.30;93250.69;4917598;29;20233;-84
2024/02/11 06:40:01;;;;;;;1.10;0.90;;;;;;;7.41;91.06;93278.69;4917621;29;20201;-84
2024/02/11 06:42:30;;;;;;;0.73;0.73;;;;;;;7.47;91.36;93289.88;4910701;29;20232;-85
2024/02/11 06:44:58;;;;;;;2.17;0.73;;;;;;;7.54;90.51;93281.09;4912006;29;20317;-84
2024/02/11 06:47:26;;;;;;;0.60;0.60;;;;;;;7.55;89.86;93266.53;4914228;29;20241;-85
2024/02/11 06:49:53;;;;;;;0.80;0.80;;;;;;;7.50;89.32;93263.84;4920462;29;20318;-84
2024/02/11 06:52:24;;;;;;;0.60;0.60;;;;;;;7.24;89.55;93275.13;4919533;29;20198;-87
2024/02/11 06:54:53;;;;;;;0.70;0.70;;;;;;;7.16;90.63;93306.09;4915705;29;20194;-86
2024/02/11 06:57:22;;;;;;;0.60;0.60;;;;;;;7.17;90.77;93312.78;4918281;29;20633;-85
2024/02/11 06:59:49;;;;;;;0.70;0.70;;;;;;;7.17;91.38;93331.50;4918060;29;20705;-84
2024/02/11 07:02:16;;;;;;;0.60;0.60;;;;;;;7.18;90.66;93325.38;4907672;29;20297;-84
2024/02/11 07:04:44;;;;;;;0.70;0.70;;;;;;;7.05;89.61;93289.69;4916539;29;20828;-84
2024/02/11 07:07:14;;;;;;;0.70;0.70;;;;;;;7.07;89.71;93323.53;4914092;29;20226;-84
2024/02/11 07:09:45;;;;;;;0.80;0.80;;;;;;;7.03;90.58;93330.03;4911843;29;20221;-85
2024/02/11 07:12:13;;;;;;;0.70;0.70;;;;;;;7.08;90.24;93331.97;4910745;29;20281;-84
2024/02/11 07:14:40;;;;;;;0.80;0.80;;;;;;;6.97;91.45;93351.34;4913152;29;20309;-84
2024/02/11 07:17:06;;;;;;;0.80;0.80;;;;;;;6.98;91.66;93360.56;4898088;29;20316;-84
2024/02/11 07:19:33;;;;;;;0.90;0.90;;;;;;;7.07;91.14;93359.34;4901044;29;20215;-84
2024/02/11 07:22:01;;;;;;;0.80;0.80;;;;;;;7.05;90.77;93361.31;4909285;29;20202;-85
2024/02/11 07:24:28;;;;;;;0.80;0.80;;;;;;;6.91;91.19;93381.09;4910900;29;20322;-85
2024/02/11 07:26:56;;;;;;;1.00;0.90;;;;;;;6.90;92.27;93391.53;4893016;29;20598;-84
2024/02/11 07:29:27;;;;;;;0.90;0.90;;;;;;;6.93;93.18;93417.47;4903902;29;20206;-85
2024/02/11 07:31:55;;;;;;;1.10;1.10;;;;;;;6.88;92.55;93417.31;4893338;29;20214;-85
2024/02/11 07:34:21;;;;;;;0.80;0.80;;;;;;;6.94;92.82;93421.59;4904360;29;20206;-85
2024/02/11 07:36:50;;;;;;;0.80;0.80;;;;;;;6.97;92.78;93430.63;4911808;29;20305;-85
2024/02/11 07:39:23;;;;;;;1.20;1.10;;;;;;;7.00;93.67;93453.25;4910873;29;20205;-84
2024/02/11 07:41:53;;;;;;;0.90;0.90;;;;;;;7.02;93.03;93442.81;4907185;29;20198;-87
2024/02/11 07:44:21;;;;;;;1.00;1.00;;;;;;;7.17;93.02;93440.72;4913560;29;20226;-84
2024/02/11 07:46:47;;;;;;;1.00;1.00;;;;;;;7.15;92.01;93427.34;4912802;29;20655;-85
2024/02/11 07:49:14;;;;;;;1.50;1.40;;;;;;;7.05;92.56;93438.06;4908545;29;20234;-84
2024/02/11 07:51:44;;;;;;;1.10;1.10;;;;;;;6.97;93.07;93451.09;4909546;29;20209;-84
2024/02/11 07:54:10;;;;;;;1.60;1.10;;;;;;;7.05;93.29;93455.97;4910367;29;20270;-84
2024/02/11 07:56:37;;;;;;;1.00;1.00;;;;;;;7.15;93.54;93461.41;4912652;29;20214;-83
2024/02/11 07:59:04;;;;;;;1.20;1.20;;;;;;;7.12;93.22;93461.06;4913534;29;20285;-85
2024/02/11 08:01:36;;;;;;;1.20;1.10;;;;;;;7.12;93.15;93469.50;4911773;29;20206;-85
2024/02/11 08:04:03;;;;;;;0.93;0.93;;;;;;;7.04;93.13;93474.09;4912827;29;20596;-84
2024/02/11 08:06:36;;;;;;;1.10;1.10;;;;;;;7.00;93.99;93494.19;4903884;29;20278;-85
2024/02/11 08:09:03;;;;;;;1.10;1.10;;;;;;;7.19;93.55;93498.38;4908793;29;20210;-86
2024/02/11 08:11:33;;;;;;;1.30;1.20;;;;;;;7.15;93.19;93486.19;4911851;29;20198;-85
2024/02/11 08:14:05;;;;;;;1.27;1.20;;;;;;;7.12;93.07;93484.09;4911680;29;20949;-84
2024/02/11 08:16:31;;;;;;;1.10;1.10;;;;;;;7.25;92.36;93478.88;4910215;29;20222;-85
2024/02/11 08:18:59;;;;;;;1.47;1.37;;;;;;;7.31;91.91;93470.38;4912114;29;20198;-84
2024/02/11 08:21:31;;;;;;;1.40;1.30;;;;;;;7.30;91.60;93471.34;4900789;29;21168;-85
2024/02/11 08:23:58;;;;;;;1.40;1.30;;;;;;;7.33;91.88;93473.47;4908791;29;20940;-85
2024/02/11 08:26:26;;;;;;;1.37;1.27;;;;;;;7.41;91.95;93480.91;4893394;29;20235;-85
2024/02/11 08:28:59;;;;;;;1.50;1.40;;;;;;;7.39;90.86;93453.94;4894374;29;20210;-85
2024/02/11 08:31:33;;;;;;;1.20;1.20;;;;;;;7.45;92.33;93494.88;4894113;29;20202;-85
2024/02/11 08:34:01;;;;;;;1.50;1.30;;;;;;;7.40;90.77;93469.09;4897005;29;20304;-84
2024/02/11 08:36:32;;;;;;;1.30;1.30;;;;;;;7.33;90.46;93468.34;4895450;29;20237;-86
2024/02/11 08:39:00;;;;;;;1.50;1.40;;;;;;;7.42;91.90;93510.63;4902028;29;20231;-85
2024/02/11 08:41:29;;;;;;;1.60;1.40;;;;;;;7.37;91.55;93491.78;4911815;29;20214;-86
2024/02/11 08:43:58;;;;;;;1.70;1.60;;;;;;;7.39;91.23;93492.34;4906667;29;20326;-85
2024/02/11 08:46:26;;;;;;;1.57;1.47;;;;;;;7.39;93.41;93535.88;4909199;29;20258;-85
2024/02/11 08:48:56;;;;;;;1.70;1.60;;;;;;;7.34;92.98;93526.25;4899816;29;20231;-85
2024/02/11 08:51:27;;;;;;;1.57;1.47;;;;;;;7.34;92.12;93522.91;4893267;29;20306;-84
2024/02/11 08:53:56;;;;;;;1.73;1.63;;;;;;;7.41;92.61;93528.75;4893638;29;20278;-86
2024/02/11 08:56:23;;;;;;;1.80;1.70;;;;;;;7.52;93.28;93539.09;4911308;29;20250;-85
2024/02/11 09:11:19;;;;;;;1.93;1.80;;;;;;;7.47;93.96;93572.25;4927553;29;20201;-85
2024/02/11 09:20:55;;;;;;;;;;;;;;;;;;;;;
2024/02/11 09:23:49;;;;;;;1.90;1.80;;;;;;;7.69;93.10;93572.69;4837608;29;20204;-86
2024/02/11 10:14:08;;;;;;;3.00;2.00;;;;;;;7.94;93.36;93636.75;4844089;29;20286;-86
2024/02/11 10:16:36;;;;;;;2.30;2.10;;;;;;;7.95;93.02;93641.66;4911193;29;20234;-86
2024/02/11 10:19:28;;;;;;;2.60;2.40;;;;;;;8.07;93.12;93644.34;4912942;29;20209;-85
2024/02/11 10:21:59;;;;;;;2.77;2.57;;;;;;;8.10;92.08;93630.31;4916449;29;20207;-85
2024/02/11 10:24:41;;;;;;;2.90;2.60;;;;;;;8.13;92.38;93640.16;4898079;29;20232;-86
2024/02/11 10:27:10;;;;;;;2.40;2.20;;;;;;;8.13;91.19;93617.88;4895193;29;20227;-86
2024/02/11 10:33:39;;;;;;;2.70;2.40;;;;;;;8.18;91.17;93632.63;4912992;29;20218;-85
2024/02/11 10:39:59;;;;;;;2.80;2.60;;;;;;;8.20;92.06;93648.59;4916874;29;20598;-86
2024/02/11 10:42:30;;;;;;;3.07;2.63;;;;;;;8.19;90.79;93629.84;4923374;29;20448;-85
2024/02/11 10:49:13;;;;;;;2.67;2.47;;;;;;;8.15;92.70;93659.44;4920895;29;20217;-86
2024/02/11 10:58:12;;;;;;;3.27;2.70;;;;;;;8.36;91.46;93637.03;4974599;23;20265;-86
2024/02/11 11:00:57;;;;;;;3.73;2.70;;;;;;;8.41;91.28;93638.00;4933927;29;20205;-87
2024/02/11 11:03:56;;;;;;;3.33;2.63;;;;;;;8.26;90.86;93630.59;4928738;29;20209;-87
2024/02/11 11:06:46;;;;;;;3.07;2.77;;;;;;;8.36;91.46;93644.72;4923143;29;20217;-86
2024/02/11 11:16:13;;;;;;;3.30;2.97;;;;;;;8.45;90.09;93615.28;4928400;29;20224;-85
2024/02/11 11:35:17;;;;;;;;;;;;;;;;;;;;;
2024/02/11 11:41:12;;;;;;;;;;;;;;;;;;;;;
2024/02/11 11:47:24;;;;;;;2.93;2.63;;;;;;;8.73;87.29;93561.69;4917323;29;20229;-87
2024/02/11 11:50:38;;;;;;;3.30;2.70;;;;;;;8.69;85.95;93534.91;4924745;29;20560;-86
2024/02/11 12:03:39;;;;;;;3.03;2.67;;;;;;;8.70;86.71;93566.47;4907461;29;20405;-85
2024/02/11 12:06:47;;;;;;;3.40;2.90;;;;;;;8.71;86.86;93571.41;4925988;29;20233;-86
2024/02/11 12:09:41;;;;;;;3.00;2.70;;;;;;;8.82;86.45;93559.66;4912193;29;20724;-86
2024/02/11 12:15:23;;;;;;;4.70;2.87;;;;;;;8.94;86.32;93555.34;4922285;29;20194;-86
2024/02/11 12:17:54;;;;;;;3.00;2.70;;;;;;;8.98;86.32;93557.28;4931723;29;20205;-86
2024/02/11 12:21:00;;;;;;;3.20;2.70;;;;;;;9.02;85.37;93534.53;4928401;29;20276;-86
2024/02/11 12:23:33;;;;;;;3.60;2.83;;;;;;;8.99;84.33;93514.44;4926259;29;20201;-86
2024/02/11 12:26:23;;;;;;;2.97;2.67;;;;;;;8.98;84.69;93520.56;4915148;29;20659;-86
2024/02/11 12:29:10;;;;;;;2.60;2.40;;;;;;;9.03;84.46;93517.34;4921322;29;20261;-87
2024/02/11 12:31:50;;;;;;;3.10;2.80;;;;;;;9.03;83.83;93517.34;4931234;29;20201;-86
2024/02/11 12:35:05;;;;;;;3.17;2.83;;;;;;;8.96;83.91;93504.59;4930520;29;20220;-87
2024/02/11 12:37:39;;;;;;;3.63;3.00;;;;;;;8.97;84.44;93524.13;4914242;29;20229;-86
2024/02/11 12:40:26;;;;;;;3.23;2.50;;;;;;;9.06;84.27;93530.50;4929387;29;20261;-86
2024/02/11 12:43:36;;;;;;;;;;;;;;;;;;;;;
2024/02/11 12:46:58;;;;;;;2.77;2.50;;;;;;;9.08;83.92;93518.25;4909988;29;20234;-86
2024/02/11 12:49:30;;;;;;;3.87;2.80;;;;;;;9.20;83.97;93528.56;4830905;29;20235;-85
2024/02/11 12:55:54;;;;;;;2.80;2.60;;;;;;;9.30;83.53;93519.31;4894668;29;20209;-86
2024/02/11 12:59:15;;;;;;;4.17;3.77;;;;;;;9.42;84.06;93534.00;4930989;29;20221;-87
2024/02/11 13:02:10;;;;;;;3.40;3.00;;;;;;;9.43;83.79;93528.63;4928471;29;20216;-87
2024/02/11 13:04:43;;;;;;;3.20;2.47;;;;;;;9.36;82.92;93507.41;4926943;29;20210;-87
2024/02/11 13:07:50;;;;;;;2.83;2.53;;;;;;;9.38;83.39;93532.88;4930060;29;20312;-87
2024/02/11 13:10:26;;;;;;;3.90;3.00;;;;;;;9.30;83.83;93526.25;4929115;29;20194;-87
2024/02/11 13:13:03;;;;;;;;;;;;;;;;;;;;;
2024/02/11 13:37:40;;;;;;;;;;;;;;;;;;;;;
2024/02/11 13:40:45;;;;;;;3.30;2.50;;;;;;;9.19;79.91;93466.16;4846305;29;20205;-86
2024/02/11 13:43:47;;;;;;;2.53;2.33;;;;;;;9.19;79.78;93458.47;4898708;29;20701;-85
2024/02/11 13:46:49;;;;;;;;;;;;;;;;;;;;;
2024/02/11 13:49:25;;;;;;;2.53;2.33;;;;;;;9.14;77.53;93408.78;4931496;29;20212;-86
2024/02/11 13:51:52;;;;;;;2.50;2.30;;;;;;;9.19;78.09;93417.41;4932084;29;20209;-85
2024/02/11 13:54:30;;;;;;;3.00;2.53;;;;;;;9.12;76.70;93390.25;4930835;29;20206;-86
2024/02/11 13:57:18;;;;;;;2.90;2.60;;;;;;;9.09;77.45;93406.09;4930685;29;20721;-87
2024/02/11 13:59:44;;;;;;;2.53;2.33;;;;;;;9.11;77.62;93412.56;4917300;29;20819;-90
2024/02/11 14:02:19;;;;;;;2.73;2.53;;;;;;;9.17;77.48;93419.41;4931175;29;20213;-88
2024/02/11 14:04:48;;;;;;;2.77;2.57;;;;;;;9.27;77.66;93426.53;4933987;29;20220;-88
2024/02/11 14:07:15;;;;;;;2.50;2.30;;;;;;;9.29;76.64;93401.44;4922662;29;20232;-89
2024/02/11 14:09:43;;;;;;;2.63;2.43;;;;;;;9.24;76.30;93391.81;4933189;29;20213;-89
2024/02/11 14:12:17;;;;;;;2.83;2.53;;;;;;;9.19;76.02;93384.03;4933513;29;20284;-89
2024/02/11 14:14:44;;;;;;;2.73;2.27;;;;;;;9.24;76.55;93403.88;4933211;29;20632;-88
2024/02/11 14:17:13;;;;;;;2.80;2.40;;;;;;;9.27;77.29;93422.19;4921998;29;20225;-88
2024/02/11 14:19:40;;;;;;;2.80;2.60;;;;;;;9.24;76.64;93409.00;4933335;29;20642;-88
2024/02/11 14:22:16;;;;;;;2.50;2.30;;;;;;;9.23;76.17;93394.63;4932565;29;20206;-89
2024/02/11 14:24:44;;;;;;;2.60;2.40;;;;;;;9.26;76.67;93410.34;4932857;29;20232;-89
2024/02/11 14:27:34;;;;;;;2.53;2.33;;;;;;;9.32;76.84;93419.75;4932729;29;20574;-90
2024/02/11 14:30:10;;;;;;;2.77;2.57;;;;;;;9.33;74.90;93358.91;4932733;29;20297;-88
2024/02/11 14:32:47;;;;;;;2.80;2.57;;;;;;;9.31;74.25;93346.28;4926208;29;20213;-89
2024/02/11 14:36:12;;;;;;;;;;;;;;;;;;;;;
2024/02/11 14:38:58;;;;;;;2.50;2.30;;;;;;;9.46;73.62;93330.41;4835861;29;20566;-88
2024/02/11 14:45:05;;;;;;;2.63;2.30;;;;;;;9.41;72.73;93306.44;4870235;29;20213;-89
2024/02/11 14:47:45;;;;;;;2.60;2.40;;;;;;;9.38;72.71;93312.03;4930787;29;20852;-87
2024/02/11 14:50:33;;;;;;;3.13;2.40;;;;;;;9.34;72.94;93306.56;4932959;29;20221;-86
2024/02/11 14:53:19;;;;;;;2.30;2.10;;;;;;;9.45;73.52;93351.97;4920399;29;20293;-86
2024/02/11 14:56:18;;;;;;;2.50;2.30;;;;;;;9.49;72.67;93327.41;4922849;29;20216;-87
2024/02/11 14:59:15;;;;;;;2.27;2.13;;;;;;;9.35;71.65;93269.59;4920400;29;20205;-87
2024/02/11 15:09:08;;;;;;;2.40;2.20;;;;;;;9.36;71.63;93273.72;4867273;29;20291;-86
2024/02/11 15:14:53;;;;;;;2.43;2.23;;;;;;;9.35;71.23;93277.31;4899378;29;20581;-88
2024/02/11 15:34:21;;;;;;;2.40;2.20;;;;;;;9.44;70.40;93270.81;4870874;29;20231;-88
2024/02/11 15:37:00;;;;;;;;;;;;;;;;;;;;;
2024/02/11 15:39:50;;;;;;;2.20;2.00;;;;;;;9.46;70.21;93263.66;4922153;29;20680;-87
2024/02/11 15:49:43;;;;;;;2.37;2.17;;;;;;;9.39;70.59;93283.56;4891871;29;20198;-86
2024/02/11 15:52:56;;;;;;;2.67;2.47;;;;;;;9.39;70.31;93275.06;4797424;29;20205;-87
2024/02/11 16:02:43;;;;;;;2.20;2.10;;;;;;;9.45;70.04;93282.63;4898400;29;20208;-86
2024/02/11 16:05:17;;;;;;;3.43;2.33;;;;;;;9.37;70.16;93288.13;4913762;29;20286;-87
2024/02/11 16:07:43;;;;;;;2.70;2.50;;;;;;;9.38;71.41;93341.06;4936278;29;20225;-86
2024/02/11 16:10:14;;;;;;;2.60;2.40;;;;;;;9.39;71.15;93334.13;4929622;29;20234;-86
2024/02/11 17:04:21;;;;;;;3.77;2.60;;;;;;;9.25;70.21;93362.56;4823885;29;20205;-88
2024/02/11 17:10:34;;;;;;;2.23;2.03;;;;;;;9.19;70.11;93370.41;4805373;29;20758;-86
2024/02/11 17:13:56;;;;;;;;;;;;;;;;;;;;;
2024/02/11 17:17:05;;;;;;;2.60;2.40;;;;;;;9.20;70.03;93379.66;4897296;23;20229;-86
2024/02/11 17:20:25;;;;;;;;;;;;;;;;;;;;;
2024/02/11 17:30:26;;;;;;;2.70;2.50;;;;;;;9.24;70.36;93404.66;4864718;29;20274;-88
2024/02/11 17:36:31;;;;;;;3.17;2.87;;;;;;;9.24;70.12;93421.84;4859667;29;20247;-84
2024/02/11 17:38:58;;;;;;;3.33;3.03;;;;;;;9.34;70.21;93427.22;4858023;29;20216;-84
2024/02/11 17:42:06;;;;;;;6.07;3.00;;;;;;;9.26;70.12;93420.63;4906280;29;20219;-86
2024/02/11 17:51:01;;;;;;;3.57;3.10;;;;;;;9.11;70.23;93437.44;4902722;29;20194;-85
2024/02/11 17:53:52;;;;;;;4.73;4.00;;;;;;;9.07;70.45;93451.72;4905348;29;20588;-85